createdAt,value
2018-12-26T00:02:52.839Z,102682.31
2018-12-26T00:05:21.307Z,102666.06
2018-12-26T00:07:49.625Z,102671.53
2018-12-26T00:10:17.926Z,102669.33
2018-12-26T00:12:46.218Z,102662.68
2018-12-26T00:15:14.543Z,102657.98
2018-12-26T00:17:42.825Z,102656.85
2018-12-26T00:20:11.129Z,102659.84
2018-12-26T00:22:39.417Z,102657.39
2018-12-26T00:25:07.735Z,102654.92
2018-12-26T00:27:36.013Z,102666.16
2018-12-26T00:32:58.898Z,102650.99
2018-12-26T00:35:27.206Z,102655.14
2018-12-26T00:37:55.488Z,102653.47
2018-12-26T00:40:23.784Z,102660.89
2018-12-26T00:42:52.073Z,102650.70
2018-12-26T00:45:20.394Z,102647.66
2018-12-26T00:47:48.678Z,102644.34
2018-12-26T00:50:17.002Z,102648.47
2018-12-26T00:52:45.309Z,102651.20
2018-12-26T00:55:13.635Z,102650.34
2018-12-26T00:57:41.913Z,102643.20
2018-12-26T01:00:10.213Z,102643.71
2018-12-26T01:02:38.499Z,102645.66
2018-12-26T01:05:06.811Z,102643.42
2018-12-26T01:07:35.105Z,102635.71
2018-12-26T01:10:43.523Z,102631.59
2018-12-26T01:13:11.835Z,102632.16
2018-12-26T01:15:40.163Z,102641.78
2018-12-26T01:18:08.460Z,102637.58
2018-12-26T01:20:36.761Z,102642.56
2018-12-26T01:23:05.047Z,102637.34
2018-12-26T01:25:33.339Z,102644.77
2018-12-26T01:28:01.635Z,102632.64
2018-12-26T01:30:29.952Z,102623.33
2018-12-26T01:32:58.253Z,102623.59
2018-12-26T01:35:26.536Z,102629.09
2018-12-26T01:37:54.841Z,102632.11
2018-12-26T01:40:23.126Z,102633.48
2018-12-26T01:42:51.428Z,102622.52
2018-12-26T01:45:19.738Z,102627.47
2018-12-26T01:47:48.040Z,102630.78
2018-12-26T01:50:16.326Z,102636.26
2018-12-26T01:52:44.625Z,102628.83
2018-12-26T01:55:12.925Z,102634.86
2018-12-26T01:57:41.234Z,102633.45
2018-12-26T02:00:09.525Z,102641.70
2018-12-26T02:02:37.843Z,102649.12
2018-12-26T02:05:06.143Z,102642.83
2018-12-26T02:07:34.449Z,102647.76
2018-12-26T02:13:10.726Z,102658.27
2018-12-26T02:15:39.021Z,102645.34
2018-12-26T02:18:07.352Z,102640.08
2018-12-26T02:20:35.663Z,102645.55
2018-12-26T02:23:03.991Z,102635.40
2018-12-26T02:25:32.290Z,102632.94
2018-12-26T02:28:00.589Z,102623.33
2018-12-26T02:30:28.879Z,102629.09
2018-12-26T02:32:57.184Z,102627.45
2018-12-26T02:35:25.474Z,102628.55
2018-12-26T02:37:53.778Z,102630.20
2018-12-26T02:40:22.078Z,102627.96
2018-12-26T02:42:50.402Z,102634.27
2018-12-26T02:45:18.700Z,102626.05
2018-12-26T02:47:47.007Z,102626.08
2018-12-26T02:50:15.298Z,102634.02
2018-12-26T02:52:43.633Z,102632.41
2018-12-26T02:55:11.931Z,102633.53
2018-12-26T02:57:40.228Z,102634.91
2018-12-26T03:03:22.088Z,102617.34
2018-12-26T03:05:50.384Z,102623.67
2018-12-26T03:08:18.691Z,102614.30
2018-12-26T03:10:47.004Z,102609.09
2018-12-26T03:13:15.327Z,102612.13
2018-12-26T03:15:43.690Z,102609.11
2018-12-26T03:18:11.987Z,102600.06
2018-12-26T03:20:40.299Z,102592.92
2018-12-26T03:23:08.601Z,102596.50
2018-12-26T03:25:36.912Z,102594.31
2018-12-26T03:28:05.220Z,102580.00
2018-12-26T03:30:33.521Z,102576.99
2018-12-26T03:33:01.848Z,102573.70
2018-12-26T03:35:30.136Z,102575.08
2018-12-26T03:37:58.454Z,102581.38
2018-12-26T03:40:26.766Z,102577.80
2018-12-26T03:42:55.058Z,102569.27
2018-12-26T03:45:23.378Z,102572.31
2018-12-26T03:47:51.678Z,102565.14
2018-12-26T03:50:19.968Z,102562.39
2018-12-26T03:52:48.266Z,102575.87
2018-12-26T03:55:16.574Z,102562.67
2018-12-26T03:57:44.896Z,102566.25
2018-12-26T04:00:13.195Z,102555.80
2018-12-26T04:02:41.507Z,102561.86
2018-12-26T04:05:09.806Z,102562.39
2018-12-26T04:07:38.098Z,102561.31
2018-12-26T04:10:06.394Z,102563.52
2018-12-26T04:12:34.712Z,102566.81
2018-12-26T04:15:03.089Z,102554.96
2018-12-26T04:17:31.385Z,102570.08
2018-12-26T04:19:59.688Z,102558.55
2018-12-26T04:22:27.978Z,102551.70
2018-12-26T04:24:56.260Z,102551.95
2018-12-26T04:27:24.571Z,102550.30
2018-12-26T04:29:52.877Z,102539.33
2018-12-26T04:32:21.168Z,102544.02
2018-12-26T04:34:49.482Z,102545.11
2018-12-26T04:37:17.777Z,102548.40
2018-12-26T04:39:46.076Z,102545.39
2018-12-26T04:42:14.372Z,102543.20
2018-12-26T04:44:42.700Z,102545.11
2018-12-26T04:47:11.004Z,102543.47
2018-12-26T04:49:39.312Z,102542.91
2018-12-26T04:52:07.598Z,102541.01
2018-12-26T04:54:35.899Z,102532.22
2018-12-26T04:57:04.193Z,102533.28
2018-12-26T04:59:32.502Z,102536.33
2018-12-26T05:02:00.809Z,102536.31
2018-12-26T05:04:29.090Z,102531.91
2018-12-26T05:06:57.417Z,102533.85
2018-12-26T05:09:25.702Z,102537.68
2018-12-26T05:11:53.997Z,102540.98
2018-12-26T05:14:22.339Z,102550.62
2018-12-26T05:16:50.615Z,102545.16
2018-12-26T05:19:18.926Z,102531.40
2018-12-26T05:21:47.221Z,102532.53
2018-12-26T05:24:15.513Z,102534.44
2018-12-26T05:26:43.837Z,102533.07
2018-12-26T05:29:12.142Z,102539.39
2018-12-26T05:31:40.467Z,102537.22
2018-12-26T05:34:08.780Z,102539.16
2018-12-26T05:36:37.093Z,102539.43
2018-12-26T05:42:19.606Z,102535.61
2018-12-26T05:44:47.935Z,102536.98
2018-12-26T05:47:16.234Z,102539.75
2018-12-26T05:49:44.551Z,102538.66
2018-12-26T05:52:12.860Z,102545.01
2018-12-26T05:54:41.154Z,102549.95
2018-12-26T05:57:09.482Z,102557.64
2018-12-26T05:59:37.772Z,102558.74
2018-12-26T06:02:06.076Z,102556.86
2018-12-26T06:04:34.370Z,102557.42
2018-12-26T06:07:02.669Z,102558.50
2018-12-26T06:09:30.964Z,102564.00
2018-12-26T06:11:59.275Z,102562.34
2018-12-26T06:14:27.587Z,102570.64
2018-12-26T06:16:55.896Z,102565.70
2018-12-26T06:19:24.193Z,102567.09
2018-12-26T06:21:52.532Z,102556.92
2018-12-26T06:24:20.824Z,102561.05
2018-12-26T06:26:49.120Z,102560.50
2018-12-26T06:29:17.528Z,102562.71
2018-12-26T06:31:45.822Z,102563.27
2018-12-26T06:34:14.126Z,102571.25
2018-12-26T06:36:42.443Z,102583.34
2018-12-26T06:39:10.748Z,102580.05
2018-12-26T06:41:39.039Z,102577.05
2018-12-26T06:44:07.350Z,102573.73
2018-12-26T06:46:35.674Z,102584.46
2018-12-26T06:49:03.984Z,102586.14
2018-12-26T06:51:32.297Z,102590.02
2018-12-26T06:54:00.602Z,102585.31
2018-12-26T06:56:28.895Z,102577.89
2018-12-26T06:58:57.198Z,102584.24
2018-12-26T07:01:25.495Z,102581.77
2018-12-26T07:03:53.828Z,102584.46
2018-12-26T07:06:22.121Z,102586.13
2018-12-26T07:08:50.491Z,102588.34
2018-12-26T07:11:18.746Z,102586.67
2018-12-26T07:13:47.061Z,102592.99
2018-12-26T07:16:15.373Z,102595.48
2018-12-26T07:18:43.667Z,102590.80
2018-12-26T07:21:11.971Z,102599.33
2018-12-26T07:23:40.264Z,102601.80
2018-12-26T07:26:08.571Z,102606.00
2018-12-26T07:28:36.893Z,102606.53
2018-12-26T07:31:05.199Z,102608.47
2018-12-26T07:33:33.519Z,102616.46
2018-12-26T07:36:01.848Z,102619.49
2018-12-26T07:38:30.136Z,102611.25
2018-12-26T07:40:58.440Z,102617.58
2018-12-26T07:43:26.731Z,102624.18
2018-12-26T07:45:55.035Z,102622.52
2018-12-26T07:48:23.342Z,102625.57
2018-12-26T07:50:51.658Z,102631.36
2018-12-26T07:53:19.964Z,102628.59
2018-12-26T07:55:48.288Z,102630.50
2018-12-26T07:58:17.681Z,102632.42
2018-12-26T08:00:46.618Z,102623.36
2018-12-26T08:03:14.907Z,102626.11
2018-12-26T08:05:43.210Z,102625.80
2018-12-26T08:08:11.502Z,102619.75
2018-12-26T08:10:39.813Z,102615.37
2018-12-26T08:13:08.101Z,102618.12
2018-12-26T08:15:36.420Z,102610.68
2018-12-26T08:18:04.700Z,102606.02
2018-12-26T08:20:33.050Z,102605.20
2018-12-26T08:23:01.371Z,102607.14
2018-12-26T08:25:29.674Z,102604.38
2018-12-26T08:27:57.991Z,102608.20
2018-12-26T08:30:26.320Z,102604.65
2018-12-26T08:32:54.633Z,102608.78
2018-12-26T08:35:22.927Z,102604.62
2018-12-26T08:37:51.252Z,102615.64
2018-12-26T08:40:19.544Z,102609.87
2018-12-26T08:42:47.871Z,102607.95
2018-12-26T08:45:16.167Z,102604.09
2018-12-26T08:47:44.465Z,102612.91
2018-12-26T08:50:12.750Z,102611.25
2018-12-26T08:52:41.073Z,102614.57
2018-12-26T08:55:09.386Z,102611.83
2018-12-26T08:57:37.690Z,102612.38
2018-12-26T09:03:20.244Z,102601.38
2018-12-26T09:05:48.536Z,102600.54
2018-12-26T09:08:16.840Z,102607.70
2018-12-26T09:10:45.151Z,102606.59
2018-12-26T09:13:13.450Z,102614.84
2018-12-26T09:15:41.735Z,102618.16
2018-12-26T09:18:10.037Z,102620.66
2018-12-26T09:20:38.349Z,102608.83
2018-12-26T09:23:06.655Z,102623.96
2018-12-26T09:25:54.395Z,102626.45
2018-12-26T09:28:22.703Z,102621.78
2018-12-26T09:30:50.994Z,102618.19
2018-12-26T09:33:19.315Z,102616.56
2018-12-26T09:35:47.597Z,102623.42
2018-12-26T09:38:15.905Z,102620.67
2018-12-26T09:40:44.199Z,102620.42
2018-12-26T09:43:12.523Z,102617.38
2018-12-26T09:45:40.829Z,102616.30
2018-12-26T09:48:09.160Z,102615.73
2018-12-26T09:50:37.480Z,102627.86
2018-12-26T09:53:05.803Z,102630.36
2018-12-26T09:55:34.088Z,102635.04
2018-12-26T09:58:02.402Z,102626.48
2018-12-26T10:00:30.687Z,102622.91
2018-12-26T10:02:58.984Z,102632.57
2018-12-26T10:05:27.276Z,102628.41
2018-12-26T10:07:55.633Z,102628.42
2018-12-26T10:10:23.928Z,102625.95
2018-12-26T10:12:52.231Z,102628.98
2018-12-26T10:15:20.525Z,102634.20
2018-12-26T10:17:48.857Z,102639.19
2018-12-26T10:20:17.147Z,102639.73
2018-12-26T10:22:45.468Z,102638.36
2018-12-26T10:25:13.777Z,102641.92
2018-12-26T10:27:42.111Z,102636.67
2018-12-26T10:30:10.396Z,102639.98
2018-12-26T10:32:38.708Z,102639.72
2018-12-26T10:38:20.768Z,102640.81
2018-12-26T10:40:49.059Z,102634.48
2018-12-26T10:43:17.358Z,102643.05
2018-12-26T10:45:45.644Z,102641.92
2018-12-26T10:48:13.961Z,102645.77
2018-12-26T10:50:42.246Z,102643.02
2018-12-26T10:53:10.580Z,102632.28
2018-12-26T10:55:38.891Z,102629.25
2018-12-26T10:58:07.189Z,102628.39
2018-12-26T11:00:35.497Z,102616.83
2018-12-26T11:03:03.807Z,102615.17
2018-12-26T11:08:20.986Z,102610.20
2018-12-26T11:10:49.265Z,102609.92
2018-12-26T11:13:17.575Z,102616.24
2018-12-26T11:15:45.892Z,102618.66
2018-12-26T11:18:14.186Z,102617.28
2018-12-26T11:20:42.490Z,102612.30
2018-12-26T11:23:10.792Z,102617.83
2018-12-26T11:25:39.128Z,102613.98
2018-12-26T11:28:07.423Z,102614.78
2018-12-26T11:30:35.747Z,102611.73
2018-12-26T11:33:11.090Z,102608.16
2018-12-26T11:35:39.432Z,102607.70
2018-12-26T11:38:07.739Z,102609.17
2018-12-26T11:40:36.068Z,102606.53
2018-12-26T11:43:04.373Z,102600.75
2018-12-26T11:45:32.714Z,102606.77
2018-12-26T11:48:01.008Z,102603.16
2018-12-26T11:50:29.329Z,102603.22
2018-12-26T11:52:57.628Z,102603.70
2018-12-26T11:55:25.943Z,102599.29
2018-12-26T11:57:54.266Z,102602.95
2018-12-26T12:00:22.567Z,102600.36
2018-12-26T12:02:50.860Z,102608.48
2018-12-26T12:05:19.161Z,102612.95
2018-12-26T12:07:47.472Z,102613.72
2018-12-26T12:10:15.772Z,102612.37
2018-12-26T12:12:44.191Z,102607.57
2018-12-26T12:15:12.479Z,102614.98
2018-12-26T12:17:40.783Z,102614.22
2018-12-26T12:20:49.198Z,102611.27
2018-12-26T12:23:17.505Z,102611.70
2018-12-26T12:25:45.808Z,102616.66
2018-12-26T12:28:14.094Z,102609.93
2018-12-26T12:30:42.388Z,102606.77
2018-12-26T12:33:10.718Z,102616.84
2018-12-26T12:35:39.012Z,102613.59
2018-12-26T12:38:07.313Z,102625.21
2018-12-26T12:40:35.600Z,102616.97
2018-12-26T12:43:03.903Z,102624.73
2018-12-26T12:45:32.194Z,102620.59
2018-12-26T12:48:00.492Z,102627.24
2018-12-26T12:50:28.783Z,102625.02
2018-12-26T12:52:57.095Z,102628.09
2018-12-26T12:55:25.407Z,102630.59
2018-12-26T12:57:53.711Z,102622.57
2018-12-26T13:00:22.028Z,102628.92
2018-12-26T13:02:50.332Z,102627.53
2018-12-26T13:05:18.653Z,102623.64
2018-12-26T13:07:46.948Z,102634.16
2018-12-26T13:10:15.240Z,102638.00
2018-12-26T13:12:43.563Z,102639.13
2018-12-26T13:15:11.850Z,102635.82
2018-12-26T13:17:40.229Z,102637.50
2018-12-26T13:23:22.612Z,102632.52
2018-12-26T13:25:50.922Z,102639.38
2018-12-26T13:28:19.228Z,102638.00
2018-12-26T13:31:06.952Z,102634.39
2018-12-26T13:33:35.256Z,102635.53
2018-12-26T13:36:03.551Z,102642.98
2018-12-26T13:38:31.880Z,102642.69
2018-12-26T13:41:00.206Z,102638.29
2018-12-26T13:43:28.515Z,102639.97
2018-12-26T13:45:56.810Z,102640.52
2018-12-26T13:48:25.122Z,102640.81
2018-12-26T13:50:53.452Z,102640.27
2018-12-26T13:53:21.787Z,102639.97
2018-12-26T13:55:50.085Z,102639.42
2018-12-26T13:58:30.441Z,102639.18
2018-12-26T14:00:58.749Z,102642.23
2018-12-26T14:03:27.044Z,102646.93
2018-12-26T14:05:55.358Z,102648.02
2018-12-26T14:08:23.660Z,102653.83
2018-12-26T14:10:51.999Z,102649.14
2018-12-26T14:13:20.295Z,102648.31
2018-12-26T14:15:48.634Z,102646.67
2018-12-26T14:18:16.949Z,102648.60
2018-12-26T14:20:45.282Z,102654.66
2018-12-26T14:23:13.580Z,102644.16
2018-12-26T14:25:41.916Z,102640.27
2018-12-26T14:28:10.221Z,102641.65
2018-12-26T14:30:38.554Z,102639.42
2018-12-26T14:33:06.862Z,102644.11
2018-12-26T14:35:35.195Z,102631.44
2018-12-26T14:38:03.494Z,102633.06
2018-12-26T14:40:31.833Z,102638.04
2018-12-26T14:43:00.140Z,102634.98
2018-12-26T14:45:28.442Z,102631.38
2018-12-26T14:47:56.736Z,102634.98
2018-12-26T14:50:25.060Z,102632.47
2018-12-26T14:52:53.377Z,102631.08
2018-12-26T14:55:21.712Z,102639.62
2018-12-26T14:57:50.007Z,102628.57
2018-12-26T15:00:20.063Z,102631.62
2018-12-26T15:02:48.366Z,102631.08
2018-12-26T15:05:16.686Z,102630.49
2018-12-26T15:07:44.991Z,102628.55
2018-12-26T15:10:13.292Z,102632.39
2018-12-26T15:12:41.606Z,102630.98
2018-12-26T15:15:10.104Z,102628.75
2018-12-26T15:17:38.410Z,102633.17
2018-12-26T15:23:21.097Z,102633.42
2018-12-26T15:25:49.391Z,102629.56
2018-12-26T15:28:17.700Z,102628.19
2018-12-26T15:30:46.001Z,102627.61
2018-12-26T15:33:14.332Z,102622.07
2018-12-26T15:35:42.632Z,102628.13
2018-12-26T15:38:10.939Z,102627.30
2018-12-26T15:40:39.261Z,102630.06
2018-12-26T15:43:07.580Z,102627.59
2018-12-26T15:45:35.879Z,102622.62
2018-12-26T15:48:04.193Z,102621.78
2018-12-26T15:50:32.494Z,102625.92
2018-12-26T15:53:00.803Z,102621.51
2018-12-26T15:55:29.126Z,102626.20
2018-12-26T15:57:57.458Z,102630.90
2018-12-26T16:00:25.758Z,102627.05
2018-12-26T16:02:54.097Z,102628.97
2018-12-26T16:05:22.394Z,102631.73
2018-12-26T16:07:50.711Z,102625.12
2018-12-26T16:10:19.008Z,102619.30
2018-12-26T16:12:47.342Z,102621.51
2018-12-26T16:15:15.637Z,102619.83
2018-12-26T16:17:43.955Z,102606.33
2018-12-26T16:20:12.252Z,102611.02
2018-12-26T16:22:40.559Z,102609.63
2018-12-26T16:28:09.865Z,102603.31
2018-12-26T16:30:45.956Z,102602.47
2018-12-26T16:33:08.223Z,102600.81
2018-12-26T16:35:36.547Z,102599.42
2018-12-26T16:38:04.878Z,102598.64
2018-12-26T16:40:33.182Z,102598.64
2018-12-26T16:43:01.534Z,102603.88
2018-12-26T16:45:29.858Z,102605.80
2018-12-26T16:47:58.160Z,102604.42
2018-12-26T16:50:27.086Z,102602.23
2018-12-26T16:52:56.491Z,102600.03
2018-12-26T16:55:24.804Z,102596.43
2018-12-26T16:57:53.100Z,102604.47
2018-12-26T17:00:21.415Z,102595.91
2018-12-26T17:02:49.710Z,102595.65
2018-12-26T17:05:18.019Z,102597.56
2018-12-26T17:07:46.326Z,102598.41
2018-12-26T17:10:54.774Z,102601.95
2018-12-26T17:13:23.073Z,102608.07
2018-12-26T17:15:51.391Z,102600.34
2018-12-26T17:18:19.687Z,102599.24
2018-12-26T17:20:48.021Z,102602.00
2018-12-26T17:23:16.322Z,102597.86
2018-12-26T17:25:44.653Z,102596.48
2018-12-26T17:28:12.960Z,102596.20
2018-12-26T17:30:41.267Z,102599.56
2018-12-26T17:33:09.583Z,102596.25
2018-12-26T17:35:37.895Z,102598.17
2018-12-26T17:38:06.189Z,102597.34
2018-12-26T17:40:34.499Z,102598.43
2018-12-26T17:43:02.805Z,102594.28
2018-12-26T17:45:32.324Z,102597.59
2018-12-26T17:48:01.157Z,102597.33
2018-12-26T17:50:49.363Z,102596.48
2018-12-26T18:00:11.687Z,102606.70
2018-12-26T18:02:39.987Z,102600.63
2018-12-26T18:05:08.311Z,102600.39
2018-12-26T18:07:36.648Z,102600.11
2018-12-26T18:13:05.616Z,102606.47
2018-12-26T18:15:33.917Z,102613.67
2018-12-26T18:18:02.239Z,102608.44
2018-12-26T18:20:30.614Z,102609.83
2018-12-26T18:22:58.929Z,102615.36
2018-12-26T18:25:27.245Z,102612.61
2018-12-26T18:27:55.553Z,102610.97
2018-12-26T18:30:23.844Z,102614.83
2018-12-26T18:32:52.175Z,102607.67
2018-12-26T18:35:20.468Z,102611.02
2018-12-26T18:37:48.805Z,102609.39
2018-12-26T18:40:17.106Z,102617.94
2018-12-26T18:42:45.419Z,102610.50
2018-12-26T18:45:13.737Z,102609.66
2018-12-26T18:47:42.047Z,102614.09
2018-12-26T18:50:10.481Z,102610.24
2018-12-26T18:52:38.793Z,102608.03
2018-12-26T18:55:07.165Z,102616.86
2018-12-26T18:57:35.473Z,102614.97
2018-12-26T19:03:17.230Z,102616.91
2018-12-26T19:05:45.531Z,102628.79
2018-12-26T19:08:13.844Z,102624.94
2018-12-26T19:10:42.146Z,102630.72
2018-12-26T19:13:10.465Z,102622.73
2018-12-26T19:15:38.788Z,102625.48
2018-12-26T19:18:07.093Z,102624.14
2018-12-26T19:20:35.412Z,102624.40
2018-12-26T19:23:03.727Z,102625.23
2018-12-26T19:25:32.031Z,102624.95
2018-12-26T19:28:00.361Z,102620.80
2018-12-26T19:30:28.664Z,102617.75
2018-12-26T19:32:56.971Z,102620.25
2018-12-26T19:35:25.268Z,102621.89
2018-12-26T19:37:53.565Z,102621.64
2018-12-26T19:40:21.885Z,102614.45
2018-12-26T19:42:50.184Z,102620.52
2018-12-26T19:45:18.568Z,102616.66
2018-12-26T19:47:46.812Z,102612.52
2018-12-26T19:50:15.125Z,102608.09
2018-12-26T19:52:43.444Z,102609.77
2018-12-26T19:55:11.755Z,102610.60
2018-12-26T19:57:40.051Z,102604.25
2018-12-26T20:00:48.471Z,102608.12
2018-12-26T20:03:16.766Z,102609.80
2018-12-26T20:05:45.063Z,102610.34
2018-12-26T20:08:13.353Z,102605.92
2018-12-26T20:10:41.664Z,102607.30
2018-12-26T20:13:09.959Z,102601.23
2018-12-26T20:15:38.268Z,102605.66
2018-12-26T20:18:06.575Z,102596.30
2018-12-26T20:20:34.875Z,102595.46
2018-12-26T20:23:03.177Z,102596.59
2018-12-26T20:25:31.485Z,102592.45
2018-12-26T20:27:59.789Z,102601.84
2018-12-26T20:30:28.100Z,102594.70
2018-12-26T20:32:56.390Z,102597.45
2018-12-26T20:35:24.703Z,102600.50
2018-12-26T20:37:52.990Z,102599.13
2018-12-26T20:40:21.297Z,102603.26
2018-12-26T20:42:49.599Z,102600.50
2018-12-26T20:45:17.902Z,102596.66
2018-12-26T20:47:46.194Z,102595.27
2018-12-26T20:50:14.495Z,102591.68
2018-12-26T20:52:42.777Z,102596.66
2018-12-26T20:55:11.084Z,102592.23
2018-12-26T20:57:39.386Z,102588.95
2018-12-26T21:00:47.829Z,102590.88
2018-12-26T21:03:16.146Z,102586.48
2018-12-26T21:05:44.454Z,102587.28
2018-12-26T21:08:12.765Z,102592.25
2018-12-26T21:10:41.080Z,102582.89
2018-12-26T21:13:09.370Z,102576.54
2018-12-26T21:15:37.679Z,102580.42
2018-12-26T21:18:05.997Z,102576.25
2018-12-26T21:20:34.301Z,102576.00
2018-12-26T21:23:02.595Z,102573.78
2018-12-26T21:25:30.908Z,102568.81
2018-12-26T21:27:59.197Z,102567.72
2018-12-26T21:30:27.507Z,102569.10
2018-12-26T21:32:55.900Z,102567.17
2018-12-26T21:35:24.208Z,102568.01
2018-12-26T21:37:52.495Z,102570.22
2018-12-26T21:40:20.889Z,102566.89
2018-12-26T21:42:49.176Z,102566.34
2018-12-26T21:45:17.485Z,102565.80
2018-12-26T21:47:45.774Z,102565.28
2018-12-26T21:50:14.079Z,102564.73
2018-12-26T21:52:42.397Z,102577.14
2018-12-26T21:55:10.714Z,102571.33
2018-12-26T21:57:39.005Z,102577.94
2018-12-26T22:00:47.453Z,102576.56
2018-12-26T22:03:15.752Z,102577.97
2018-12-26T22:05:44.056Z,102586.22
2018-12-26T22:08:12.374Z,102585.13
2018-12-26T22:10:40.718Z,102589.27
2018-12-26T22:13:09.017Z,102587.30
2018-12-26T22:15:37.307Z,102587.85
2018-12-26T22:18:05.616Z,102582.91
2018-12-26T22:20:33.916Z,102576.56
2018-12-26T22:23:02.226Z,102575.73
2018-12-26T22:25:30.524Z,102578.23
2018-12-26T22:27:58.836Z,102580.98
2018-12-26T22:30:27.152Z,102584.55
2018-12-26T22:32:55.469Z,102585.38
2018-12-26T22:35:23.758Z,102585.67
2018-12-26T22:37:52.091Z,102578.78
2018-12-26T22:40:20.379Z,102577.94
2018-12-26T22:42:48.691Z,102579.31
2018-12-26T22:45:16.983Z,102576.56
2018-12-26T22:47:45.298Z,102574.64
2018-12-26T22:50:13.601Z,102580.98
2018-12-26T22:52:41.905Z,102574.64
2018-12-26T22:55:10.203Z,102573.28
2018-12-26T22:57:38.522Z,102563.34
2018-12-26T23:03:07.940Z,102557.28
2018-12-26T23:05:36.255Z,102560.05
2018-12-26T23:08:04.559Z,102558.95
2018-12-26T23:10:32.861Z,102552.06
2018-12-26T23:13:01.185Z,102551.23
2018-12-26T23:15:29.479Z,102552.61
2018-12-26T23:17:57.785Z,102545.42
2018-12-26T23:20:26.083Z,102536.90
2018-12-26T23:22:54.397Z,102535.80
2018-12-26T23:25:22.693Z,102533.88
2018-12-26T23:27:51.020Z,102540.52
2018-12-26T23:30:19.312Z,102533.62
2018-12-26T23:32:47.601Z,102533.08
2018-12-26T23:35:15.908Z,102529.74
2018-12-26T23:37:44.198Z,102525.06
2018-12-26T23:40:12.530Z,102532.24
2018-12-26T23:42:40.823Z,102528.66
2018-12-26T23:45:09.142Z,102528.11
2018-12-26T23:47:37.435Z,102525.06
2018-12-26T23:50:05.745Z,102525.64
2018-12-26T23:52:34.212Z,102520.67
2018-12-26T23:55:02.519Z,102527.56
2018-12-26T23:57:30.818Z,102523.13
2018-12-26T23:59:59.137Z,102519.30
